createdAt,value
2022-08-22T00:01:23.949Z,100947.38
2022-08-22T00:03:12.735Z,100884.34
2022-08-22T00:03:16.334Z,100941.94
2022-08-22T00:04:18.940Z,100948.22
2022-08-22T00:07:06.381Z,100888.97
2022-08-22T00:09:58.012Z,100957.19
2022-08-22T00:12:33.486Z,100931.25
2022-08-22T00:15:42.301Z,100959.97
2022-08-22T00:18:11.941Z,100966.22
2022-08-22T00:21:32.732Z,100969.00
2022-08-22T00:24:09.538Z,100970.53
2022-08-22T00:27:00.965Z,100968.00
2022-08-22T00:29:46.494Z,100918.91
2022-08-22T00:32:28.062Z,100960.25
2022-08-22T00:35:06.019Z,100974.03
2022-08-22T00:37:42.229Z,100927.56
2022-08-22T00:40:25.189Z,100978.63
2022-08-22T00:43:20.214Z,100974.28
2022-08-22T00:46:06.191Z,100955.38
2022-08-22T00:49:13.182Z,100938.25
2022-08-22T00:52:27.456Z,100971.03
2022-08-22T00:55:10.086Z,100960.69
2022-08-22T00:58:00.173Z,100976.16
2022-08-22T01:00:35.255Z,100921.03
2022-08-22T01:03:26.273Z,100982.19
2022-08-22T01:06:21.069Z,100983.97
2022-08-22T01:09:10.726Z,100968.28
2022-08-22T01:11:45.543Z,100986.13
2022-08-22T01:14:34.412Z,100972.44
2022-08-22T01:17:45.028Z,100949.03
2022-08-22T01:20:50.361Z,100999.69
2022-08-22T01:23:37.530Z,101001.31
2022-08-22T01:26:49.373Z,100977.13
2022-08-22T01:29:56.392Z,101007.34
2022-08-22T01:32:43.442Z,101006.00
2022-08-22T01:35:29.717Z,101006.63
2022-08-22T01:38:19.506Z,100976.44
2022-08-22T01:41:03.587Z,101001.56
2022-08-22T01:44:15.086Z,100979.44
2022-08-22T01:46:56.413Z,101000.25
2022-08-22T01:49:38.239Z,101010.88
2022-08-22T01:52:19.536Z,101012.50
2022-08-22T01:55:03.774Z,100993.72
2022-08-22T01:57:32.604Z,100994.66
2022-08-22T02:00:09.474Z,101002.28
2022-08-22T02:03:08.523Z,101020.22
2022-08-22T02:05:54.186Z,100962.72
2022-08-22T02:08:37.745Z,101018.16
2022-08-22T02:11:32.730Z,101022.97
2022-08-22T02:14:41.346Z,101021.28
2022-08-22T02:17:20.246Z,101010.00
2022-08-22T02:20:10.539Z,101016.69
2022-08-22T02:22:54.522Z,101018.75
2022-08-22T02:25:26.748Z,101031.81
2022-08-22T02:28:11.673Z,101024.53
2022-08-22T02:31:17.057Z,101035.59
2022-08-22T02:34:21.433Z,101042.38
2022-08-22T02:36:58.224Z,100995.66
2022-08-22T02:39:39.469Z,101044.56
2022-08-22T02:42:34.743Z,101042.09
2022-08-22T02:45:21.991Z,101049.81
2022-08-22T02:48:23.695Z,101040.03
2022-08-22T02:50:57.591Z,101052.03
2022-08-22T02:53:40.027Z,101042.16
2022-08-22T02:56:17.654Z,101031.44
2022-08-22T02:59:12.896Z,101044.25
2022-08-22T03:01:45.190Z,101044.81
2022-08-22T03:04:32.043Z,101049.06
2022-08-22T03:07:18.921Z,101015.28
2022-08-22T03:09:57.306Z,101038.28
2022-08-22T03:12:57.432Z,101060.94
2022-08-22T03:15:40.622Z,101005.78
2022-08-22T03:18:29.676Z,101059.81
2022-08-22T03:21:14.623Z,101063.69
2022-08-22T03:23:50.102Z,101053.03
2022-08-22T03:26:28.605Z,101038.16
2022-08-22T03:29:17.585Z,101054.53
2022-08-22T03:32:07.264Z,101061.81
2022-08-22T03:34:37.111Z,101039.75
2022-08-22T03:37:41.325Z,101076.69
2022-08-22T03:40:31.814Z,101060.31
2022-08-22T03:43:15.310Z,101066.69
2022-08-22T03:46:37.223Z,101034.56
2022-08-22T03:49:42.693Z,101065.16
2022-08-22T03:52:29.847Z,101080.09
2022-08-22T03:55:04.203Z,101070.81
2022-08-22T03:57:53.727Z,101020.66
2022-08-22T04:01:06.203Z,101079.47
2022-08-22T04:04:11.994Z,101085.06
2022-08-22T04:06:49.245Z,101078.31
2022-08-22T04:09:43.570Z,101087.72
2022-08-22T04:12:30.200Z,101086.59
2022-08-22T04:15:14.998Z,101073.28
2022-08-22T04:18:27.693Z,101090.22
2022-08-22T04:21:08.141Z,101085.13
2022-08-22T04:24:07.188Z,101097.47
2022-08-22T04:26:48.757Z,101056.59
2022-08-22T04:29:29.410Z,101087.22
2022-08-22T04:32:26.015Z,101065.63
2022-08-22T04:35:03.909Z,101082.19
2022-08-22T04:37:54.603Z,101074.16
2022-08-22T04:40:56.455Z,101054.22
2022-08-22T04:43:43.321Z,101071.56
2022-08-22T04:46:24.791Z,101036.75
2022-08-22T04:49:42.354Z,101069.94
2022-08-22T04:52:46.083Z,101053.63
2022-08-22T04:55:27.731Z,101080.56
2022-08-22T04:58:26.363Z,101072.34
2022-08-22T05:01:13.815Z,101065.81
2022-08-22T05:03:52.015Z,101074.81
2022-08-22T05:06:24.323Z,101038.41
2022-08-22T05:08:53.689Z,101043.03
2022-08-22T05:11:25.293Z,101048.31
2022-08-22T05:14:01.485Z,101074.53
2022-08-22T05:16:39.994Z,101050.31
2022-08-22T05:19:17.458Z,101069.09
2022-08-22T05:21:51.317Z,101053.06
2022-08-22T05:24:37.145Z,101064.41
2022-08-22T05:27:12.894Z,101055.53
2022-08-22T05:29:46.325Z,101071.75
2022-08-22T05:32:26.993Z,101055.38
2022-08-22T05:35:01.369Z,101044.53
2022-08-22T05:37:48.171Z,101030.19
2022-08-22T05:40:24.110Z,101039.06
2022-08-22T05:42:54.615Z,101033.22
2022-08-22T05:45:24.633Z,101055.41
2022-08-22T05:48:04.093Z,101065.88
2022-08-22T05:50:41.593Z,101066.09
2022-08-22T05:53:39.606Z,101072.72
2022-08-22T05:56:32.436Z,101044.25
2022-08-22T05:59:21.078Z,101049.59
2022-08-22T06:01:52.760Z,101064.28
2022-08-22T06:04:32.165Z,101043.56
2022-08-22T06:07:10.145Z,101033.78
2022-08-22T06:09:50.006Z,101066.66
2022-08-22T06:12:43.796Z,101060.28
2022-08-22T06:15:35.571Z,101062.13
2022-08-22T06:18:12.679Z,101063.13
2022-08-22T06:20:48.683Z,101044.53
2022-08-22T06:23:27.423Z,101025.84
2022-08-22T06:26:00.520Z,101058.38
2022-08-22T06:28:39.135Z,101039.97
2022-08-22T06:31:37.596Z,101058.59
2022-08-22T06:34:06.125Z,101065.97
2022-08-22T06:36:38.165Z,101046.59
2022-08-22T06:39:28.047Z,101048.06
2022-08-22T06:42:16.721Z,101056.38
2022-08-22T06:44:55.136Z,101064.94
2022-08-22T06:47:29.486Z,101028.81
2022-08-22T06:50:07.287Z,101053.44
2022-08-22T06:53:14.840Z,101042.16
2022-08-22T06:55:49.585Z,101035.25
2022-08-22T06:58:22.756Z,101039.13
2022-08-22T07:01:05.760Z,101018.41
2022-08-22T07:03:48.325Z,101057.06
2022-08-22T07:06:20.158Z,101023.59
2022-08-22T07:08:54.563Z,101003.56
2022-08-22T07:11:32.517Z,101046.94
2022-08-22T07:14:07.066Z,101048.47
2022-08-22T07:16:43.286Z,101020.84
2022-08-22T07:19:27.795Z,101039.53
2022-08-22T07:21:57.234Z,101036.72
2022-08-22T07:24:32.923Z,101033.56
2022-08-22T07:27:09.589Z,101049.44
2022-08-22T07:30:10.265Z,101047.84
2022-08-22T07:33:25.855Z,101044.31
2022-08-22T07:35:59.870Z,101026.63
2022-08-22T07:38:45.779Z,101035.41
2022-08-22T07:41:25.830Z,100997.59
2022-08-22T07:44:16.120Z,101009.50
2022-08-22T07:46:53.517Z,101038.72
2022-08-22T07:49:26.894Z,101013.28
2022-08-22T07:52:00.035Z,100962.00
2022-08-22T07:54:47.747Z,101032.41
2022-08-22T07:57:25.660Z,101025.34
2022-08-22T08:00:02.129Z,101011.59
2022-08-22T08:02:48.026Z,100987.16
2022-08-22T08:05:18.252Z,101021.72
2022-08-22T08:07:48.650Z,101018.25
2022-08-22T08:10:24.544Z,101020.97
2022-08-22T08:13:02.391Z,101009.50
2022-08-22T08:15:36.534Z,101016.53
2022-08-22T08:18:15.140Z,101031.47
2022-08-22T08:20:43.883Z,101010.75
2022-08-22T08:23:23.641Z,100998.19
2022-08-22T08:26:08.401Z,101011.66
2022-08-22T08:28:46.975Z,101031.47
2022-08-22T08:31:25.736Z,101030.16
2022-08-22T08:34:10.282Z,100970.13
2022-08-22T08:36:49.432Z,101027.44
2022-08-22T08:39:38.442Z,100978.09
2022-08-22T08:42:28.222Z,101003.72
2022-08-22T08:45:16.267Z,101000.63
2022-08-22T08:48:06.170Z,101017.09
2022-08-22T08:50:57.500Z,101009.81
2022-08-22T08:54:02.292Z,101001.75
2022-08-22T08:57:00.442Z,100991.84
2022-08-22T09:00:00.654Z,101013.75
2022-08-22T09:02:47.706Z,101016.09
2022-08-22T09:05:44.006Z,101015.25
2022-08-22T09:08:36.681Z,101007.56
2022-08-22T09:11:28.343Z,101003.00
2022-08-22T09:14:24.144Z,100957.84
2022-08-22T09:17:22.860Z,100979.91
2022-08-22T09:20:17.593Z,101000.31
2022-08-22T09:23:04.603Z,101009.44
2022-08-22T09:25:46.149Z,100999.88
2022-08-22T09:28:30.765Z,101013.34
2022-08-22T09:31:16.988Z,101010.72
2022-08-22T09:34:13.049Z,100995.88
2022-08-22T09:37:03.630Z,101016.34
2022-08-22T09:39:51.288Z,101011.28
2022-08-22T09:42:38.427Z,100982.91
2022-08-22T09:45:34.381Z,100986.03
2022-08-22T09:48:08.529Z,101003.00
2022-08-22T09:50:54.555Z,100997.56
2022-08-22T09:53:58.857Z,101002.34
2022-08-22T09:56:53.737Z,101004.97
2022-08-22T09:59:33.717Z,100994.41
2022-08-22T10:02:15.493Z,100998.72
2022-08-22T10:04:53.070Z,100987.13
2022-08-22T10:07:52.952Z,101003.13
2022-08-22T10:10:27.035Z,100993.09
2022-08-22T10:13:11.205Z,100998.25
2022-08-22T10:15:58.143Z,101010.78
2022-08-22T10:19:12.330Z,100997.63
2022-08-22T10:21:49.599Z,101003.63
2022-08-22T10:24:31.697Z,100965.22
2022-08-22T10:27:14.846Z,100871.13
2022-08-22T10:29:55.073Z,101000.00
2022-08-22T10:32:59.876Z,101005.84
2022-08-22T10:35:56.110Z,100966.69
2022-08-22T10:38:46.202Z,100988.69
2022-08-22T10:41:40.360Z,100975.25
2022-08-22T10:44:24.590Z,100969.03
2022-08-22T10:46:59.423Z,100970.56
2022-08-22T10:50:00.011Z,101001.41
2022-08-22T10:52:33.429Z,100975.38
2022-08-22T10:55:13.182Z,100969.66
2022-08-22T10:57:52.136Z,100876.91
2022-08-22T11:00:49.956Z,101002.94
2022-08-22T11:03:39.885Z,100955.16
2022-08-22T11:06:34.753Z,101008.97
2022-08-22T11:09:14.245Z,100992.63
2022-08-22T11:12:13.443Z,100976.91
2022-08-22T11:14:50.824Z,101008.63
2022-08-22T11:17:40.616Z,101003.50
2022-08-22T11:20:27.798Z,100996.41
2022-08-22T11:23:28.844Z,101003.88
2022-08-22T11:26:47.315Z,101005.22
2022-08-22T11:29:52.474Z,101001.44
2022-08-22T11:32:36.247Z,100886.25
2022-08-22T11:35:23.543Z,101010.72
2022-08-22T11:38:32.583Z,101015.50
2022-08-22T11:41:27.546Z,101003.63
2022-08-22T11:44:03.398Z,100997.78
2022-08-22T11:46:36.747Z,100994.22
2022-08-22T11:49:31.584Z,100998.34
2022-08-22T11:52:09.868Z,100975.69
2022-08-22T11:55:12.666Z,100993.75
2022-08-22T11:57:46.373Z,100944.09
2022-08-22T12:00:34.878Z,101000.97
2022-08-22T12:03:24.593Z,101003.91
2022-08-22T12:06:15.391Z,100911.06
2022-08-22T12:08:53.153Z,101001.09
2022-08-22T12:11:59.665Z,100932.63
2022-08-22T12:14:46.114Z,101001.09
2022-08-22T12:17:55.916Z,101001.94
2022-08-22T12:20:48.503Z,101000.16
2022-08-22T12:24:01.110Z,100987.13
2022-08-22T12:26:51.272Z,100966.25
2022-08-22T12:29:44.628Z,100991.81
2022-08-22T12:32:38.018Z,101002.56
2022-08-22T12:35:40.911Z,100994.13
2022-08-22T12:38:32.812Z,100985.00
2022-08-22T12:41:37.639Z,100992.94
2022-08-22T12:44:30.898Z,100990.47
2022-08-22T12:47:15.224Z,100998.41
2022-08-22T12:50:14.305Z,100991.53
2022-08-22T12:53:00.603Z,100961.22
2022-08-22T12:55:46.035Z,100932.91
2022-08-22T12:58:51.322Z,100985.50
2022-08-22T13:01:23.364Z,100969.72
2022-08-22T13:04:08.876Z,100997.56
2022-08-22T13:06:37.035Z,101004.06
2022-08-22T13:09:20.669Z,100998.97
2022-08-22T13:12:03.430Z,101006.50
2022-08-22T13:14:34.793Z,101001.41
2022-08-22T13:17:24.450Z,101015.91
2022-08-22T13:20:08.655Z,100996.31
2022-08-22T13:22:45.033Z,100953.78
2022-08-22T13:25:26.170Z,101009.84
2022-08-22T13:28:04.414Z,100991.66
2022-08-22T13:30:39.961Z,100996.81
2022-08-22T13:33:14.954Z,101001.13
2022-08-22T13:35:55.342Z,101003.50
2022-08-22T13:38:28.826Z,101018.50
2022-08-22T13:40:59.374Z,100996.69
2022-08-22T13:43:53.137Z,101005.25
2022-08-22T13:46:31.079Z,100979.38
2022-08-22T13:49:09.104Z,100990.31
2022-08-22T13:51:54.474Z,101012.25
2022-08-22T13:54:45.304Z,101012.16
2022-08-22T13:57:31.213Z,100987.38
2022-08-22T14:00:28.669Z,101014.53
2022-08-22T14:03:05.656Z,100974.97
2022-08-22T14:05:55.409Z,101010.72
2022-08-22T14:08:32.781Z,101010.88
2022-08-22T14:11:08.312Z,101016.03
2022-08-22T14:14:02.007Z,100975.41
2022-08-22T14:16:38.812Z,101028.88
2022-08-22T14:19:11.380Z,101002.41
2022-08-22T14:21:52.078Z,101020.72
2022-08-22T14:24:29.790Z,101043.09
2022-08-22T14:27:06.962Z,101021.38
2022-08-22T14:30:06.848Z,101045.13
2022-08-22T14:33:05.185Z,101055.88
2022-08-22T14:35:43.269Z,101045.06
2022-08-22T14:38:27.362Z,101054.13
2022-08-22T14:41:52.332Z,101059.50
2022-08-22T14:44:39.508Z,101047.94
2022-08-22T14:47:54.659Z,101070.81
2022-08-22T14:50:13.039Z,101038.00
2022-08-22T14:52:45.315Z,101039.38
2022-08-22T14:55:27.174Z,101054.69
2022-08-22T14:58:07.694Z,101052.28
2022-08-22T15:00:57.810Z,101086.31
2022-08-22T15:03:33.883Z,101096.28
2022-08-22T15:06:04.237Z,101091.28
2022-08-22T15:08:49.534Z,101092.41
2022-08-22T15:11:23.918Z,101095.75
2022-08-22T15:14:14.424Z,101102.75
2022-08-22T15:17:02.486Z,101077.97
2022-08-22T15:19:36.525Z,101113.50
2022-08-22T15:22:14.243Z,101071.06
2022-08-22T15:24:56.341Z,101105.88
2022-08-22T15:27:27.739Z,101097.66
2022-08-22T15:30:06.774Z,101088.53
2022-08-22T15:32:49.660Z,101083.13
2022-08-22T15:35:32.155Z,101115.28
2022-08-22T15:38:11.249Z,101116.38
2022-08-22T15:40:46.766Z,101101.16
2022-08-22T15:43:24.991Z,101115.25
2022-08-22T15:46:17.913Z,101120.47
2022-08-22T15:49:01.507Z,101104.06
2022-08-22T15:52:06.162Z,101132.66
2022-08-22T15:54:51.237Z,101132.66
2022-08-22T15:57:28.477Z,101134.88
2022-08-22T16:00:27.858Z,101070.50
2022-08-22T16:03:02.632Z,101113.44
2022-08-22T16:05:42.993Z,101140.66
2022-08-22T16:08:18.124Z,101112.09
2022-08-22T16:11:14.905Z,101100.06
2022-08-22T16:13:45.478Z,101133.06
2022-08-22T16:16:26.291Z,101137.53
2022-08-22T16:18:54.947Z,101144.56
2022-08-22T16:21:26.630Z,101137.69
2022-08-22T16:23:57.194Z,101150.88
2022-08-22T16:26:39.349Z,101085.63
2022-08-22T16:29:41.301Z,101134.75
2022-08-22T16:32:15.708Z,101147.56
2022-08-22T16:34:46.517Z,101147.47
2022-08-22T16:37:22.976Z,101160.53
2022-08-22T16:40:07.694Z,101159.88
2022-08-22T16:42:47.794Z,101147.78
2022-08-22T16:45:25.675Z,101156.91
2022-08-22T16:47:58.889Z,101135.75
2022-08-22T16:51:10.625Z,101151.72
2022-08-22T16:53:45.765Z,101157.69
2022-08-22T16:56:36.072Z,101165.00
2022-08-22T16:59:23.734Z,101178.38
2022-08-22T17:02:16.153Z,101168.00
2022-08-22T17:05:20.703Z,101153.06
2022-08-22T17:08:04.183Z,101167.00
2022-08-22T17:10:36.016Z,101170.59
2022-08-22T17:13:26.472Z,101147.84
2022-08-22T17:16:33.858Z,101158.38
2022-08-22T17:19:32.965Z,101104.53
2022-08-22T17:22:29.080Z,101146.88
2022-08-22T17:25:45.311Z,101174.56
2022-08-22T17:28:21.943Z,101160.66
2022-08-22T17:31:02.604Z,101137.13
2022-08-22T17:33:59.894Z,101139.88
2022-08-22T17:36:51.724Z,101137.88
2022-08-22T17:39:56.019Z,101169.06
2022-08-22T17:42:36.118Z,101170.94
2022-08-22T17:45:16.670Z,101145.78
2022-08-22T17:47:53.230Z,101153.41
2022-08-22T17:50:35.233Z,101128.69
2022-08-22T17:53:16.098Z,101141.44
2022-08-22T17:56:06.883Z,101167.25
2022-08-22T17:59:08.224Z,101172.16
2022-08-22T18:01:45.162Z,101149.53
2022-08-22T18:04:23.712Z,101151.28
2022-08-22T18:07:06.213Z,101145.28
2022-08-22T18:10:00.282Z,101163.59
2022-08-22T18:12:46.783Z,101096.47
2022-08-22T18:15:40.531Z,101127.28
2022-08-22T18:18:30.366Z,101161.97
2022-08-22T18:21:30.391Z,101160.47
2022-08-22T18:24:06.411Z,101154.66
2022-08-22T18:26:47.322Z,101160.19
2022-08-22T18:29:21.211Z,101147.78
2022-08-22T18:32:03.439Z,101148.09
2022-08-22T18:34:53.804Z,101146.38
2022-08-22T18:37:35.324Z,101146.97
2022-08-22T18:40:29.776Z,101160.00
2022-08-22T18:43:19.092Z,101147.97
2022-08-22T18:45:47.536Z,101161.72
2022-08-22T18:49:05.449Z,101160.19
2022-08-22T18:51:38.211Z,101153.88
2022-08-22T18:54:11.694Z,101159.31
2022-08-22T18:56:51.763Z,101116.06
2022-08-22T18:59:47.666Z,101160.00
2022-08-22T19:02:34.735Z,101133.53
2022-08-22T19:05:34.146Z,100987.16
2022-08-22T19:08:19.918Z,101114.81
2022-08-22T19:11:14.696Z,101130.91
2022-08-22T19:14:09.552Z,101181.13
2022-08-22T19:17:05.349Z,101170.00
2022-08-22T19:20:27.872Z,101156.50
2022-08-22T19:23:34.857Z,101158.25
2022-08-22T19:26:24.950Z,101155.38
2022-08-22T19:29:18.017Z,101058.94
2022-08-22T19:32:02.608Z,101116.59
2022-08-22T19:34:39.531Z,101139.13
2022-08-22T19:37:32.210Z,101161.91
2022-08-22T19:40:10.110Z,101149.97
2022-08-22T19:42:44.804Z,101142.09
2022-08-22T19:45:29.529Z,101163.25
2022-08-22T19:48:14.286Z,101149.31
2022-08-22T19:50:44.589Z,101019.97
2022-08-22T19:53:34.376Z,101108.69
2022-08-22T19:56:33.653Z,101162.47
2022-08-22T19:59:21.247Z,101158.06
2022-08-22T20:02:12.925Z,101158.78
2022-08-22T20:04:53.364Z,101166.56
2022-08-22T20:07:43.195Z,101120.81
2022-08-22T20:10:17.896Z,101165.81
2022-08-22T20:13:20.039Z,101160.75
2022-08-22T20:16:14.171Z,101148.03
2022-08-22T20:19:08.529Z,101169.03
2022-08-22T20:21:47.356Z,101168.09
2022-08-22T20:24:47.386Z,101170.91
2022-08-22T20:27:32.527Z,101169.16
2022-08-22T20:30:12.666Z,101126.19
2022-08-22T20:32:51.276Z,100961.44
2022-08-22T20:35:23.725Z,101133.19
2022-08-22T20:38:06.979Z,101159.72
2022-08-22T20:41:11.070Z,101174.47
2022-08-22T20:43:53.789Z,101136.47
2022-08-22T20:46:47.431Z,101185.31
2022-08-22T20:49:29.490Z,101139.59
2022-08-22T20:52:01.190Z,101136.16
2022-08-22T20:54:35.053Z,101180.44
2022-08-22T20:57:15.165Z,101191.00
2022-08-22T20:59:53.151Z,101160.59
2022-08-22T21:02:42.307Z,101158.47
2022-08-22T21:05:13.992Z,101198.50
2022-08-22T21:07:46.032Z,101185.03
2022-08-22T21:10:45.893Z,101196.34
2022-08-22T21:13:20.592Z,101190.47
2022-08-22T21:16:32.545Z,101204.56
2022-08-22T21:19:05.220Z,101191.38
2022-08-22T21:21:35.629Z,101195.81
2022-08-22T21:24:10.159Z,101195.19
2022-08-22T21:26:50.341Z,101222.97
2022-08-22T21:29:18.753Z,101209.94
2022-08-22T21:31:50.209Z,101229.16
2022-08-22T21:34:27.884Z,101219.44
2022-08-22T21:37:03.120Z,101188.41
2022-08-22T21:39:45.482Z,101227.59
2022-08-22T21:42:25.102Z,101197.63
2022-08-22T21:44:59.388Z,101212.31
2022-08-22T21:47:33.275Z,101194.91
2022-08-22T21:50:13.820Z,101216.63
2022-08-22T21:53:04.373Z,101227.09
2022-08-22T21:55:34.564Z,101238.59
2022-08-22T21:58:13.656Z,101224.06
2022-08-22T22:01:32.547Z,101236.63
2022-08-22T22:04:01.677Z,101183.66
2022-08-22T22:06:30.282Z,101228.59
2022-08-22T22:08:59.236Z,101175.03
2022-08-22T22:11:28.040Z,101200.25
2022-08-22T22:13:56.807Z,101200.19
2022-08-22T22:16:28.331Z,101226.94
2022-08-22T22:18:57.721Z,101208.78
2022-08-22T22:21:26.525Z,101221.50
2022-08-22T22:23:56.446Z,101214.66
2022-08-22T22:26:27.525Z,101226.78
2022-08-22T22:28:59.241Z,101246.75
2022-08-22T22:31:27.954Z,101239.84
2022-08-22T22:33:56.722Z,101221.66
2022-08-22T22:36:27.455Z,101226.13
2022-08-22T22:38:56.418Z,101249.84
2022-08-22T22:41:26.312Z,101237.88
2022-08-22T22:43:56.295Z,101204.38
2022-08-22T22:46:27.894Z,101225.47
2022-08-22T22:48:58.177Z,101223.81
2022-08-22T22:51:26.927Z,101224.78
2022-08-22T22:53:57.484Z,101208.41
2022-08-22T22:56:26.961Z,101213.66
2022-08-22T22:59:00.884Z,101202.50
2022-08-22T23:02:10.839Z,101247.59
2022-08-22T23:04:41.929Z,101217.22
2022-08-22T23:07:12.637Z,101253.72
2022-08-22T23:09:45.166Z,101245.00
2022-08-22T23:12:15.387Z,101251.22
2022-08-22T23:14:44.500Z,101225.34
2022-08-22T23:17:13.346Z,101223.59
2022-08-22T23:19:42.971Z,101245.28
2022-08-22T23:22:14.743Z,101235.66
2022-08-22T23:24:43.584Z,101253.84
2022-08-22T23:27:12.919Z,101252.09
2022-08-22T23:29:42.872Z,101264.28
2022-08-22T23:32:12.666Z,101269.66
2022-08-22T23:34:46.544Z,101267.94
2022-08-22T23:37:17.705Z,101268.97
2022-08-22T23:39:46.595Z,101237.03
2022-08-22T23:42:16.202Z,101274.38
2022-08-22T23:44:46.135Z,101239.09
2022-08-22T23:47:16.072Z,101269.53
2022-08-22T23:49:45.404Z,101271.53
2022-08-22T23:52:14.187Z,101214.31
2022-08-22T23:54:43.141Z,101287.09
2022-08-22T23:57:12.731Z,101268.00
2022-08-22T23:59:48.020Z,101280.91
